Time;durP1;ratioP1;P1;durP2;ratioP2;P2;SDS_P1;SDS_P2;PMS_P1;PMS_P2;Temp;Humidity;BMP_temperature;BMP_pressure;BME280_temperature;BME280_humidity;BME280_pressure;Samples;Min_cycle;Max_cycle;Signal;HPM_P1;HPM_P2
2023/09/05 00:00:16;;;;;;;2.83;2.63;;;;;;;19.24;54.92;95489.41;4993012;28;20266;-91
2023/09/05 00:02:48;;;;;;;2.60;2.40;;;;;;;19.25;54.99;95499.59;4994178;28;20745;-88
2023/09/05 00:05:17;;;;;;;3.00;2.70;;;;;;;19.27;55.05;95500.16;4996326;28;20214;-90
2023/09/05 00:07:46;;;;;;;2.63;2.42;;;;;;;19.37;54.77;95493.53;4993209;28;20306;-89
2023/09/05 00:10:13;;;;;;;3.28;2.58;;;;;;;19.38;54.68;95489.91;4993379;28;20196;-90
2023/09/05 00:12:41;;;;;;;2.60;2.40;;;;;;;19.30;55.09;95499.69;4993119;28;20294;-90
2023/09/05 00:15:09;;;;;;;3.72;2.67;;;;;;;19.30;55.35;95511.94;4994463;28;20253;-91
2023/09/05 00:17:37;;;;;;;2.60;2.40;;;;;;;19.31;55.30;95511.72;4992344;28;20219;-89
2023/09/05 00:20:06;;;;;;;3.28;2.53;;;;;;;19.38;55.38;95510.78;4993233;28;20210;-89
2023/09/05 00:22:36;;;;;;;3.88;3.22;;;;;;;19.30;55.59;95514.56;4994936;28;20238;-90
2023/09/05 00:25:03;;;;;;;3.50;3.03;;;;;;;19.26;55.55;95518.66;4993785;28;20230;-89
2023/09/05 00:27:30;;;;;;;2.92;2.63;;;;;;;19.21;55.76;95514.16;4993813;28;20258;-89
2023/09/05 00:29:57;;;;;;;2.80;2.50;;;;;;;19.17;55.82;95517.44;4993623;28;20207;-90
2023/09/05 00:32:23;;;;;;;2.45;2.25;;;;;;;19.10;56.27;95533.22;4993029;28;20243;-91
2023/09/05 00:34:50;;;;;;;3.67;2.55;;;;;;;19.07;56.30;95535.50;4992035;28;20210;-90
2023/09/05 00:37:21;;;;;;;3.45;2.58;;;;;;;19.14;56.52;95559.66;4992675;28;20231;-89
2023/09/05 00:39:48;;;;;;;3.15;2.85;;;;;;;19.14;56.38;95547.41;4995728;28;20204;-90
2023/09/05 00:49:10;;;;;;;3.83;2.55;;;;;;;19.13;56.58;95555.47;4955076;28;20263;-83
2023/09/05 00:51:37;;;;;;;3.10;2.47;;;;;;;19.10;56.90;95561.16;4982715;28;20202;-82
2023/09/05 00:54:07;;;;;;;3.33;2.45;;;;;;;19.06;56.87;95565.22;5012816;28;20938;-83
2023/09/05 00:56:35;;;;;;;3.22;2.92;;;;;;;19.00;57.21;95577.41;5013036;28;20629;-83
2023/09/05 00:59:02;;;;;;;4.25;2.60;;;;;;;19.01;57.39;95591.25;5011684;28;20233;-81
2023/09/05 01:01:29;;;;;;;3.20;2.90;;;;;;;19.04;57.36;95583.75;5011955;28;20203;-82
2023/09/05 01:03:57;;;;;;;2.80;2.58;;;;;;;19.13;57.19;95578.97;5010942;28;20226;-82
2023/09/05 01:06:31;;;;;;;3.55;2.90;;;;;;;19.04;57.38;95588.19;5005242;28;20215;-82
2023/09/05 01:09:07;;;;;;;2.97;2.30;;;;;;;19.05;57.45;95581.94;5007261;28;20200;-82
2023/09/05 01:11:36;;;;;;;3.97;2.60;;;;;;;19.06;57.68;95589.50;5015361;28;20210;-82
2023/09/05 01:14:02;;;;;;;2.67;2.30;;;;;;;18.95;57.75;95592.94;5015549;28;20245;-82
2023/09/05 01:16:29;;;;;;;2.50;2.30;;;;;;;18.93;58.06;95602.81;5015347;28;20206;-83
2023/09/05 01:18:55;;;;;;;3.03;2.58;;;;;;;18.89;58.47;95609.50;5014243;28;20214;-81
2023/09/05 01:21:30;;;;;;;2.92;2.38;;;;;;;18.89;58.52;95615.50;5013956;28;20199;-82
2023/09/05 01:24:12;;;;;;;2.85;2.47;;;;;;;18.90;58.23;95614.50;5008715;28;20256;-82
2023/09/05 01:26:39;;;;;;;2.50;2.30;;;;;;;18.84;58.57;95630.28;5015405;28;20203;-82
2023/09/05 01:29:06;;;;;;;3.53;2.53;;;;;;;18.88;58.78;95629.56;4996288;28;20564;-82
2023/09/05 01:31:34;;;;;;;3.40;2.80;;;;;;;18.97;58.49;95630.84;5014535;28;20199;-82
2023/09/05 01:34:01;;;;;;;2.72;2.53;;;;;;;18.98;58.53;95622.00;5015074;28;20734;-82
2023/09/05 01:36:27;;;;;;;2.78;2.58;;;;;;;19.02;58.29;95613.72;5014837;28;20237;-82
2023/09/05 01:38:53;;;;;;;3.45;2.65;;;;;;;19.07;58.48;95614.59;5005558;28;20223;-82
2023/09/05 01:41:21;;;;;;;3.38;2.42;;;;;;;19.05;58.43;95621.09;5015477;28;20213;-82
2023/09/05 01:43:48;;;;;;;3.08;2.70;;;;;;;18.97;58.73;95630.03;5012279;28;20218;-82
2023/09/05 01:46:14;;;;;;;2.67;2.47;;;;;;;19.00;58.92;95631.41;5015508;28;20207;-81
2023/09/05 01:48:41;;;;;;;2.95;2.63;;;;;;;18.97;58.78;95619.59;5015087;28;20202;-83
2023/09/05 01:51:07;;;;;;;2.70;2.50;;;;;;;18.89;59.20;95635.59;5014797;28;20218;-82
2023/09/05 01:53:34;;;;;;;3.00;2.70;;;;;;;18.88;59.17;95639.22;5014090;28;20214;-82
2023/09/05 01:56:00;;;;;;;2.55;2.22;;;;;;;18.89;59.16;95653.84;5011557;28;20207;-83
2023/09/05 01:58:28;;;;;;;2.50;2.30;;;;;;;18.74;59.88;95672.56;5015399;28;20234;-83
2023/09/05 02:00:55;;;;;;;2.90;2.60;;;;;;;18.68;60.00;95672.66;5014711;28;20202;-82
2023/09/05 02:03:21;;;;;;;2.90;2.67;;;;;;;18.63;60.26;95678.56;5014965;28;20222;-83
2023/09/05 02:05:47;;;;;;;2.90;2.70;;;;;;;18.67;60.36;95692.72;5014597;28;20722;-82
2023/09/05 02:08:14;;;;;;;3.00;2.67;;;;;;;18.76;60.37;95695.81;5014134;28;20210;-82
2023/09/05 02:10:40;;;;;;;2.53;2.33;;;;;;;18.82;59.82;95693.13;4994961;28;20195;-83
2023/09/05 02:13:07;;;;;;;2.97;2.78;;;;;;;18.83;60.19;95701.75;5003106;28;20238;-82
2023/09/05 02:15:36;;;;;;;2.80;2.60;;;;;;;18.91;60.45;95709.22;5010470;28;20198;-82
2023/09/05 02:18:03;;;;;;;3.38;2.70;;;;;;;18.89;60.49;95706.03;5012577;28;20227;-83
2023/09/05 02:20:30;;;;;;;2.70;2.50;;;;;;;18.98;60.58;95709.91;5013927;28;20290;-82
2023/09/05 02:22:56;;;;;;;2.88;2.67;;;;;;;18.94;60.55;95717.41;5013826;28;20226;-81
2023/09/05 02:25:22;;;;;;;3.00;2.70;;;;;;;18.97;60.41;95697.88;5013263;28;20203;-82
2023/09/05 02:27:49;;;;;;;3.00;2.75;;;;;;;18.81;60.95;95727.25;5008979;28;20205;-82
2023/09/05 02:30:16;;;;;;;2.60;2.40;;;;;;;18.65;61.77;95751.38;5013302;28;20203;-83
2023/09/05 02:32:44;;;;;;;2.85;2.65;;;;;;;18.54;62.33;95766.72;5012868;28;20632;-82
2023/09/05 02:35:10;;;;;;;3.55;2.60;;;;;;;18.26;62.99;95787.34;5013040;28;20290;-82
2023/09/05 02:37:37;;;;;;;3.28;2.58;;;;;;;18.18;63.60;95806.69;5014149;28;20213;-82
2023/09/05 02:40:07;;;;;;;3.42;3.00;;;;;;;18.20;63.60;95812.47;5013457;28;20203;-82
2023/09/05 02:42:33;;;;;;;3.10;2.90;;;;;;;18.12;63.92;95815.38;5008869;28;20273;-82
2023/09/05 02:45:00;;;;;;;3.17;2.65;;;;;;;18.06;64.20;95820.66;5005371;28;20200;-82
2023/09/05 02:47:26;;;;;;;3.38;3.08;;;;;;;17.89;65.11;95839.47;4996704;28;20203;-82
2023/09/05 02:49:54;;;;;;;4.07;2.65;;;;;;;17.86;65.42;95860.75;5013057;28;20203;-83
2023/09/05 02:52:21;;;;;;;4.30;2.70;;;;;;;17.71;66.18;95869.88;5012752;28;20203;-82
2023/09/05 02:54:47;;;;;;;3.70;2.80;;;;;;;17.60;66.75;95892.97;5013046;28;20242;-82
2023/09/05 02:57:14;;;;;;;3.70;2.83;;;;;;;17.67;66.93;95890.38;5013650;28;20214;-83
2023/09/05 02:59:40;;;;;;;3.22;2.92;;;;;;;17.59;67.36;95911.41;5006045;28;20391;-82
2023/09/05 03:02:07;;;;;;;2.92;2.72;;;;;;;17.53;67.80;95914.84;5011872;28;20199;-82
2023/09/05 03:04:33;;;;;;;2.72;2.53;;;;;;;17.53;67.79;95930.47;5012911;28;20203;-82
2023/09/05 03:07:02;;;;;;;3.30;3.00;;;;;;;17.66;67.81;95917.41;5013146;28;20199;-82
2023/09/05 03:09:28;;;;;;;3.53;2.90;;;;;;;17.72;67.39;95910.53;5013046;28;20253;-82
2023/09/05 03:11:55;;;;;;;3.13;2.83;;;;;;;17.78;67.01;95901.88;5013458;28;20198;-82
2023/09/05 03:14:21;;;;;;;3.22;2.88;;;;;;;17.73;67.43;95915.53;5010759;28;20223;-83
2023/09/05 03:16:48;;;;;;;5.18;3.40;;;;;;;17.74;67.19;95908.53;5010579;28;20207;-81
2023/09/05 03:19:15;;;;;;;4.35;2.80;;;;;;;17.58;68.10;95939.25;5012292;28;20233;-83
2023/09/05 03:21:41;;;;;;;3.60;3.30;;;;;;;17.44;68.81;95950.78;5012679;28;20241;-82
2023/09/05 03:24:09;;;;;;;4.43;3.00;;;;;;;17.44;68.73;95968.22;5012875;28;20219;-82
2023/09/05 03:26:36;;;;;;;3.58;3.28;;;;;;;17.26;70.19;95989.72;5012775;28;20698;-83
2023/09/05 03:29:03;;;;;;;3.10;2.85;;;;;;;17.25;70.41;95994.13;5012936;28;20209;-83
2023/09/05 03:31:29;;;;;;;4.40;2.97;;;;;;;17.32;70.58;95996.69;5006910;28;20214;-83
2023/09/05 03:33:56;;;;;;;4.75;3.10;;;;;;;17.37;70.07;95993.47;5011952;28;20223;-82
2023/09/05 03:36:25;;;;;;;5.55;3.33;;;;;;;17.32;70.33;95988.13;5013617;28;20210;-82
2023/09/05 03:38:52;;;;;;;5.35;3.10;;;;;;;17.47;69.56;95973.00;5012448;28;20297;-82
2023/09/05 03:41:20;;;;;;;5.43;3.17;;;;;;;17.40;69.73;95970.44;5012746;28;20198;-82
2023/09/05 03:43:46;;;;;;;3.40;2.63;;;;;;;17.26;70.18;95985.31;4995354;28;20735;-82
2023/09/05 03:46:13;;;;;;;3.33;3.03;;;;;;;17.29;70.23;95985.91;4995645;28;20203;-83
2023/09/05 03:48:39;;;;;;;3.10;2.80;;;;;;;17.32;70.42;95993.31;5007260;28;20202;-83
2023/09/05 03:51:06;;;;;;;3.20;2.90;;;;;;;17.46;69.85;95984.41;5012920;28;20221;-82
2023/09/05 03:53:32;;;;;;;3.42;3.10;;;;;;;17.56;69.23;95951.69;5012535;28;20242;-82
2023/09/05 03:55:59;;;;;;;3.25;2.95;;;;;;;17.63;69.00;95950.84;5013072;28;20406;-84
2023/09/05 03:58:26;;;;;;;3.30;3.00;;;;;;;17.42;69.90;95973.63;5008469;28;20238;-82
2023/09/05 04:00:58;;;;;;;3.13;2.92;;;;;;;17.40;69.98;95980.84;4992588;28;20302;-81
2023/09/05 04:03:25;;;;;;;5.43;3.58;;;;;;;17.39;70.08;95987.06;5002596;28;20223;-82
2023/09/05 04:05:52;;;;;;;2.97;2.78;;;;;;;17.46;70.04;95987.81;5012882;28;20766;-81
2023/09/05 04:08:18;;;;;;;4.07;3.40;;;;;;;17.48;69.85;95982.41;5012666;28;20207;-81
2023/09/05 04:10:45;;;;;;;3.38;3.08;;;;;;;17.51;69.75;95977.56;5012201;28;20687;-82
2023/09/05 04:13:11;;;;;;;5.57;3.47;;;;;;;17.50;70.19;95991.63;5012291;28;20215;-83
2023/09/05 04:15:39;;;;;;;3.65;3.35;;;;;;;17.33;71.24;96013.09;5011562;28;20199;-83
2023/09/05 04:18:06;;;;;;;3.55;3.10;;;;;;;17.20;71.54;96034.78;5012315;28;20206;-82
2023/09/05 04:20:32;;;;;;;3.67;3.38;;;;;;;17.10;72.51;96043.06;5008402;28;20234;-81
2023/09/05 04:22:59;;;;;;;4.43;3.22;;;;;;;17.26;72.02;96044.38;5012196;28;20227;-83
2023/09/05 04:25:27;;;;;;;4.18;3.63;;;;;;;17.35;71.71;96030.13;5012049;28;20203;-81
2023/09/05 04:27:54;;;;;;;3.53;2.83;;;;;;;17.38;71.25;96026.31;5012438;28;20207;-82
2023/09/05 04:30:20;;;;;;;3.30;3.00;;;;;;;17.43;71.10;96027.28;5012950;28;20210;-83
2023/09/05 04:32:48;;;;;;;4.30;3.47;;;;;;;17.22;72.03;96041.41;5012643;28;20229;-82
2023/09/05 04:35:14;;;;;;;4.25;3.15;;;;;;;17.21;71.88;96049.41;5008365;28;20215;-81
2023/09/05 04:37:41;;;;;;;4.28;3.20;;;;;;;17.26;71.83;96049.59;5009650;28;20210;-83
2023/09/05 04:40:08;;;;;;;3.47;3.17;;;;;;;17.18;72.58;96058.41;5011306;28;20226;-82
2023/09/05 04:42:35;;;;;;;3.50;3.20;;;;;;;17.12;73.12;96076.69;5014495;28;20214;-81
2023/09/05 04:45:02;;;;;;;4.50;3.13;;;;;;;17.05;73.17;96070.69;5015029;28;20238;-82
2023/09/05 04:47:29;;;;;;;4.25;3.60;;;;;;;17.23;72.31;96060.41;5016669;28;20207;-82
2023/09/05 04:49:58;;;;;;;6.72;3.22;;;;;;;17.39;71.76;96033.09;5016661;28;20199;-82
2023/09/05 04:52:27;;;;;;;3.90;3.50;;;;;;;17.36;71.78;96052.53;5010841;28;20671;-82
2023/09/05 04:54:58;;;;;;;4.78;3.17;;;;;;;17.33;71.57;96042.53;5016179;28;20626;-82
2023/09/05 04:57:25;;;;;;;3.20;2.90;;;;;;;17.44;71.32;96034.09;5011693;28;20217;-82
2023/09/05 04:59:57;;;;;;;3.78;3.38;;;;;;;17.40;71.44;96029.50;5015854;28;20223;-82
2023/09/05 05:02:24;;;;;;;4.00;3.60;;;;;;;17.33;71.56;96039.13;5016242;28;20205;-81
2023/09/05 05:04:51;;;;;;;3.88;3.58;;;;;;;17.44;71.30;96039.28;5017374;28;20756;-82
2023/09/05 05:07:19;;;;;;;3.30;3.00;;;;;;;17.37;71.64;96046.31;5014823;28;20207;-82
2023/09/05 05:09:46;;;;;;;4.63;3.25;;;;;;;17.28;72.15;96055.41;5006843;28;20679;-83
2023/09/05 05:12:12;;;;;;;5.40;3.58;;;;;;;17.22;72.48;96069.22;5017125;28;20226;-83
2023/09/05 05:14:39;;;;;;;7.10;4.20;;;;;;;17.27;72.86;96085.03;5016624;28;20214;-82
2023/09/05 05:17:06;;;;;;;5.30;4.03;;;;;;;17.33;72.50;96071.16;5016013;28;20206;-81
2023/09/05 05:19:33;;;;;;;8.98;5.10;;;;;;;17.40;73.70;96118.81;5017017;28;20233;-82
2023/09/05 05:22:00;;;;;;;8.35;7.47;;;;;;;17.57;71.80;96049.63;5017059;28;20702;-83
2023/09/05 05:24:27;;;;;;;31.33;28.08;;;;;;;17.50;72.73;96072.31;5010418;28;20227;-82
2023/09/05 05:26:54;;;;;;;4.13;3.80;;;;;;;17.58;71.70;96048.63;5006576;28;20211;-81
2023/09/05 05:29:20;;;;;;;7.70;4.20;;;;;;;17.52;71.60;96053.88;5017192;28;20575;-82
2023/09/05 05:31:47;;;;;;;6.90;4.68;;;;;;;17.56;71.27;96055.06;5017618;28;20210;-83
2023/09/05 05:34:14;;;;;;;10.02;9.02;;;;;;;17.64;71.51;96059.22;5016784;28;20223;-81
2023/09/05 05:36:40;;;;;;;7.03;4.90;;;;;;;17.81;70.83;96031.72;5016107;28;20206;-83
2023/09/05 05:39:07;;;;;;;4.15;3.58;;;;;;;17.90;70.06;96005.19;5017561;28;20241;-82
2023/09/05 05:41:35;;;;;;;3.88;3.53;;;;;;;17.74;70.26;96007.50;5011997;28;20202;-82
2023/09/05 05:44:01;;;;;;;5.95;3.80;;;;;;;17.68;70.65;96021.38;5016086;28;20227;-82
2023/09/05 05:46:30;;;;;;;4.60;4.10;;;;;;;17.67;70.64;96025.00;5016714;28;20229;-82
2023/09/05 05:48:58;;;;;;;3.55;3.25;;;;;;;17.71;70.73;96023.53;5016904;28;20199;-82
2023/09/05 05:51:25;;;;;;;4.18;3.50;;;;;;;17.80;70.38;96019.69;5015625;28;20264;-83
2023/09/05 05:53:52;;;;;;;4.57;3.60;;;;;;;17.73;70.17;96009.31;5014260;28;20258;-82
2023/09/05 05:56:18;;;;;;;4.28;3.13;;;;;;;17.80;70.57;96037.91;5010958;28;20308;-82
2023/09/05 05:58:48;;;;;;;4.38;3.97;;;;;;;17.81;70.23;96029.09;5015700;28;20258;-83
2023/09/05 06:01:14;;;;;;;5.32;4.10;;;;;;;17.84;70.15;96029.47;5016665;28;20237;-83
2023/09/05 06:03:41;;;;;;;6.65;4.07;;;;;;;17.95;69.69;96022.78;5016143;28;20230;-82
2023/09/05 06:06:07;;;;;;;4.68;3.35;;;;;;;17.97;69.59;96023.38;5016064;28;20207;-82
2023/09/05 06:08:34;;;;;;;6.68;4.15;;;;;;;17.99;69.37;96012.75;5015368;28;20222;-82
2023/09/05 06:11:00;;;;;;;4.22;3.58;;;;;;;18.01;69.84;96034.19;5016188;28;20551;-81
2023/09/05 06:13:27;;;;;;;4.07;3.60;;;;;;;17.90;69.69;96026.00;5010980;28;20223;-82
2023/09/05 06:15:54;;;;;;;4.40;3.70;;;;;;;17.85;69.90;96038.09;5016305;28;20207;-81
2023/09/05 06:18:21;;;;;;;3.78;3.28;;;;;;;17.94;69.80;96036.81;5015736;28;20195;-82
2023/09/05 06:20:47;;;;;;;5.05;4.15;;;;;;;17.85;69.92;96032.88;5014953;28;20222;-82
2023/09/05 06:23:14;;;;;;;5.00;4.47;;;;;;;18.00;69.53;96012.53;5015607;28;20226;-83
2023/09/05 06:25:40;;;;;;;5.00;3.80;;;;;;;18.05;69.27;96007.50;5015204;28;20205;-83
2023/09/05 06:28:07;;;;;;;5.88;3.75;;;;;;;18.10;68.84;95993.81;5011345;28;20235;-82
2023/09/05 06:30:33;;;;;;;6.10;3.40;;;;;;;18.18;69.12;95996.94;5013174;28;20199;-83
2023/09/05 06:33:01;;;;;;;4.20;3.30;;;;;;;18.20;69.04;95994.13;5014947;28;20230;-83
2023/09/05 06:35:28;;;;;;;4.15;3.63;;;;;;;18.34;68.56;95994.81;5015168;28;20199;-83
2023/09/05 06:37:55;;;;;;;3.70;3.35;;;;;;;18.53;68.34;95978.97;5015844;28;20211;-82
2023/09/05 06:40:23;;;;;;;3.72;3.42;;;;;;;18.62;67.84;95963.88;5015488;28;20227;-82
2023/09/05 06:42:50;;;;;;;4.38;3.28;;;;;;;18.63;67.70;95955.03;5014404;28;20225;-81
2023/09/05 06:45:17;;;;;;;4.32;3.42;;;;;;;18.62;67.16;95949.03;5010502;28;20199;-81
2023/09/05 06:47:43;;;;;;;4.03;3.70;;;;;;;18.69;66.91;95925.44;5015554;28;20221;-83
2023/09/05 06:50:11;;;;;;;4.70;3.33;;;;;;;18.70;66.46;95921.03;5015209;28;20202;-82
2023/09/05 06:52:38;;;;;;;4.63;3.15;;;;;;;18.89;66.25;95906.94;5014315;28;20330;-83
2023/09/05 06:55:05;;;;;;;5.35;3.50;;;;;;;19.13;65.52;95887.75;5014959;28;20203;-81
2023/09/05 06:57:32;;;;;;;4.80;3.58;;;;;;;19.10;65.05;95869.94;5013557;28;20203;-83
2023/09/05 06:59:59;;;;;;;5.00;3.28;;;;;;;19.12;65.34;95885.38;5015093;28;20222;-83
2023/09/05 07:02:25;;;;;;;3.15;2.85;;;;;;;19.19;64.42;95845.13;5008973;28;20202;-82
2023/09/05 07:04:52;;;;;;;3.75;3.00;;;;;;;19.21;64.64;95853.53;5014403;28;20206;-81
2023/09/05 07:07:20;;;;;;;3.92;3.20;;;;;;;19.42;65.11;95880.13;5014206;28;20199;-82
2023/09/05 07:09:46;;;;;;;3.17;2.90;;;;;;;19.73;64.12;95858.16;5014412;28;20673;-83
2023/09/05 07:12:13;;;;;;;3.40;3.10;;;;;;;20.00;63.39;95827.94;5013742;28;20206;-82
2023/09/05 07:14:39;;;;;;;4.50;2.90;;;;;;;20.18;62.70;95806.88;5013845;28;20214;-83
2023/09/05 07:17:07;;;;;;;4.03;3.00;;;;;;;20.52;62.42;95797.34;5008323;28;20211;-82
2023/09/05 07:19:33;;;;;;;4.55;2.60;;;;;;;20.60;60.60;95723.72;5014077;28;20285;-82
2023/09/05 07:22:00;;;;;;;3.97;3.10;;;;;;;20.60;60.48;95718.47;5013946;28;20222;-83
2023/09/05 07:24:28;;;;;;;4.38;2.80;;;;;;;20.66;60.82;95735.84;5013347;28;20770;-83
2023/09/05 07:26:54;;;;;;;3.92;2.85;;;;;;;20.70;60.13;95715.25;5014289;28;20199;-82
2023/09/05 07:29:20;;;;;;;6.05;2.88;;;;;;;20.94;60.46;95719.31;5014224;28;20207;-83
2023/09/05 07:31:47;;;;;;;5.43;2.92;;;;;;;21.09;59.30;95668.22;5014560;28;20264;-83
2023/09/05 07:34:14;;;;;;;3.10;2.80;;;;;;;21.25;58.71;95655.13;5009497;28;20233;-82
2023/09/05 07:36:40;;;;;;;3.42;2.60;;;;;;;21.27;57.79;95605.13;5014588;28;20218;-82
2023/09/05 07:39:09;;;;;;;3.25;2.78;;;;;;;21.58;57.94;95614.94;5014126;28;20217;-83
2023/09/05 07:41:38;;;;;;;3.47;2.75;;;;;;;21.51;57.19;95564.56;5013772;28;20203;-83
2023/09/05 07:44:05;;;;;;;3.25;2.90;;;;;;;21.38;56.57;95521.16;5014088;28;20222;-82
2023/09/05 07:46:31;;;;;;;2.97;2.67;;;;;;;21.34;56.80;95553.34;5013787;28;20695;-83
2023/09/05 07:48:57;;;;;;;2.92;2.63;;;;;;;21.46;56.60;95547.97;5008750;28;20203;-82
2023/09/05 07:51:24;;;;;;;2.80;2.55;;;;;;;21.81;56.28;95530.00;4993087;28;20222;-82
2023/09/05 07:54:00;;;;;;;3.30;2.72;;;;;;;21.82;55.47;95497.50;4993454;28;20236;-83
2023/09/05 07:56:29;;;;;;;2.90;2.70;;;;;;;21.89;55.03;95477.13;4993060;28;20199;-81
2023/09/05 07:58:57;;;;;;;3.75;2.90;;;;;;;21.91;55.08;95461.94;4993133;28;20212;-82
2023/09/05 08:01:23;;;;;;;3.55;2.53;;;;;;;21.89;55.00;95465.84;4993083;28;20230;-82
2023/09/05 08:03:50;;;;;;;2.70;2.50;;;;;;;21.98;54.15;95419.75;4993158;28;20251;-83
2023/09/05 08:06:17;;;;;;;4.15;2.45;;;;;;;22.03;53.34;95391.78;5002975;28;20207;-82
2023/09/05 08:08:43;;;;;;;2.90;2.60;;;;;;;22.25;54.33;95436.25;5012775;28;20201;-83
2023/09/05 08:11:10;;;;;;;2.55;2.20;;;;;;;22.33;53.63;95422.63;5012234;28;20206;-82
2023/09/05 08:13:36;;;;;;;2.42;2.17;;;;;;;22.59;53.14;95388.66;5010509;28;20229;-83
2023/09/05 08:16:05;;;;;;;2.70;2.50;;;;;;;22.99;52.11;95349.44;5013066;28;20823;-82
2023/09/05 08:18:31;;;;;;;2.95;2.60;;;;;;;23.06;51.38;95304.53;5011543;28;20667;-83
2023/09/05 08:20:59;;;;;;;2.70;2.50;;;;;;;23.15;52.27;95349.44;5009571;28;20226;-82
2023/09/05 08:23:25;;;;;;;2.85;2.40;;;;;;;23.25;51.72;95334.50;5010820;28;20249;-83
2023/09/05 08:25:56;;;;;;;2.95;2.72;;;;;;;23.42;50.82;95282.47;5011872;28;20207;-83
2023/09/05 08:28:22;;;;;;;3.38;2.30;;;;;;;23.55;50.67;95281.16;5012691;28;20260;-82
2023/09/05 08:30:49;;;;;;;3.78;2.30;;;;;;;23.73;50.41;95266.69;5012544;28;20226;-81
2023/09/05 08:33:17;;;;;;;2.67;2.47;;;;;;;23.71;49.58;95248.53;5012332;28;20230;-82
2023/09/05 08:35:43;;;;;;;2.80;2.55;;;;;;;23.69;50.70;95292.72;5012104;28;20199;-82
2023/09/05 08:38:09;;;;;;;2.83;2.63;;;;;;;23.72;49.77;95252.75;5007499;28;20203;-83
2023/09/05 08:40:36;;;;;;;2.65;2.45;;;;;;;23.87;49.58;95246.66;5012125;28;20234;-83
2023/09/05 08:43:03;;;;;;;4.00;2.08;;;;;;;23.92;48.96;95212.44;5012118;28;20249;-83
2023/09/05 08:45:31;;;;;;;2.95;2.28;;;;;;;24.07;49.23;95235.28;5013433;28;20207;-83
2023/09/05 08:47:58;;;;;;;2.20;2.10;;;;;;;24.10;48.98;95208.44;5012884;28;20286;-83
2023/09/05 08:50:26;;;;;;;2.17;2.05;;;;;;;24.22;48.18;95181.81;5013574;28;20208;-83
2023/09/05 08:52:54;;;;;;;2.72;2.40;;;;;;;24.57;48.19;95189.53;5010747;28;20281;-83
2023/09/05 08:55:22;;;;;;;3.40;2.85;;;;;;;24.76;47.40;95147.50;5006269;28;20644;-82
2023/09/05 08:57:53;;;;;;;2.85;2.65;;;;;;;24.74;47.81;95153.06;5013610;28;20451;-83
2023/09/05 09:00:21;;;;;;;2.92;2.50;;;;;;;24.70;47.66;95145.97;5013742;28;20233;-83
2023/09/05 09:02:48;;;;;;;3.40;2.80;;;;;;;24.61;48.06;95166.84;5013238;28;20218;-83
2023/09/05 09:05:14;;;;;;;2.50;2.30;;;;;;;24.61;47.22;95132.63;5013183;28;20206;-83
2023/09/05 09:07:42;;;;;;;2.47;2.28;;;;;;;24.65;46.97;95099.41;5012751;28;20370;-83
2023/09/05 09:10:20;;;;;;;2.80;2.60;;;;;;;24.82;46.41;95100.88;5005678;28;20703;-82
2023/09/05 09:12:48;;;;;;;3.05;2.47;;;;;;;24.94;46.79;95109.16;5013409;28;20269;-83
2023/09/05 09:15:15;;;;;;;2.47;2.28;;;;;;;25.06;46.76;95104.31;5012764;28;20199;-83
2023/09/05 09:17:42;;;;;;;3.28;2.80;;;;;;;24.96;46.64;95088.63;5012404;28;20202;-83
2023/09/05 09:20:12;;;;;;;2.60;2.40;;;;;;;24.99;46.11;95061.75;5013042;28;20226;-83
2023/09/05 09:22:38;;;;;;;2.60;2.40;;;;;;;25.12;45.68;95045.25;5011838;28;20222;-83
2023/09/05 09:25:12;;;;;;;2.97;2.45;;;;;;;25.39;45.70;95058.66;5013081;28;20206;-83
2023/09/05 09:27:39;;;;;;;2.65;2.45;;;;;;;25.72;44.79;95003.41;5007953;28;20211;-83
2023/09/05 09:30:08;;;;;;;6.05;3.28;;;;;;;25.64;44.56;94999.53;5015640;28;20238;-82
2023/09/05 09:32:35;;;;;;;3.53;2.58;;;;;;;25.61;45.16;95015.09;5016067;28;20219;-83
2023/09/05 09:35:05;;;;;;;2.75;2.55;;;;;;;25.60;45.99;95068.91;5016330;28;20203;-84
2023/09/05 09:37:32;;;;;;;9.73;4.00;;;;;;;25.89;45.40;95037.97;5016336;28;20206;-83
2023/09/05 09:39:59;;;;;;;7.55;3.90;;;;;;;26.00;45.14;95044.66;5016790;28;20234;-83
2023/09/05 09:42:28;;;;;;;6.65;2.80;;;;;;;26.13;44.00;94979.81;5009286;28;20200;-82
2023/09/05 09:44:54;;;;;;;3.80;2.80;;;;;;;26.17;44.15;94983.44;5008234;28;20275;-83
2023/09/05 09:47:21;;;;;;;3.00;2.55;;;;;;;26.10;44.47;94983.03;5016673;28;20279;-83
2023/09/05 09:49:50;;;;;;;3.08;2.42;;;;;;;25.82;44.83;94995.31;5017042;28;20234;-82
2023/09/05 09:52:19;;;;;;;3.13;2.47;;;;;;;25.94;45.60;95045.03;5015799;28;20214;-82
2023/09/05 09:54:47;;;;;;;3.92;2.35;;;;;;;25.99;45.68;95032.53;5017173;28;20498;-83
2023/09/05 09:57:19;;;;;;;2.80;2.60;;;;;;;26.24;45.75;95070.16;5016541;28;20202;-83
2023/09/05 09:59:50;;;;;;;2.63;2.42;;;;;;;26.65;45.60;95055.25;5012492;28;20202;-83
2023/09/05 10:02:17;;;;;;;3.28;2.97;;;;;;;26.73;44.88;95037.97;5016174;28;20206;-83
2023/09/05 10:04:46;;;;;;;3.35;2.70;;;;;;;26.91;45.09;95034.47;5015545;28;20384;-83
2023/09/05 10:07:14;;;;;;;3.53;3.05;;;;;;;27.10;44.60;95018.56;5016073;28;20199;-83
2023/09/05 10:09:42;;;;;;;3.05;2.72;;;;;;;27.23;44.60;95003.75;5004143;28;20199;-83
2023/09/05 10:12:11;;;;;;;3.50;3.20;;;;;;;26.71;44.49;94979.38;4995859;28;20204;-88
2023/09/05 10:14:41;;;;;;;5.18;2.80;;;;;;;26.41;45.57;95050.13;4995109;28;20218;-85
2023/09/05 10:17:16;;;;;;;4.38;3.08;;;;;;;26.35;46.02;95080.31;5015113;28;20210;-95
2023/09/05 10:19:45;;;;;;;4.03;2.53;;;;;;;26.25;46.36;95091.00;5016748;28;20198;-92
2023/09/05 10:22:16;;;;;;;2.60;2.40;;;;;;;26.03;45.79;95033.53;5011168;28;20667;-90
2023/09/05 10:24:49;;;;;;;3.00;2.80;;;;;;;25.60;46.88;95080.25;5010812;28;20214;-92
2023/09/05 10:27:16;;;;;;;4.20;2.42;;;;;;;25.62;47.16;95120.34;5012127;28;20202;-90
2023/09/05 10:29:43;;;;;;;2.65;2.45;;;;;;;25.92;47.13;95107.84;5010571;28;20672;-91
2023/09/05 10:32:14;;;;;;;3.97;2.20;;;;;;;26.15;46.92;95099.06;5005771;28;20199;-91
2023/09/05 10:34:58;;;;;;;3.30;2.55;;;;;;;26.10;46.02;95054.28;5011821;28;20234;-92
2023/09/05 10:38:09;;;;;;;2.60;2.38;;;;;;;26.09;46.60;95087.81;5018961;28;20203;-93
2023/09/05 10:40:48;;;;;;;7.63;2.42;;;;;;;26.23;47.15;95106.31;5018063;28;20234;-92
2023/09/05 10:43:20;;;;;;;2.70;2.50;;;;;;;26.35;46.77;95072.41;5013714;28;20310;-92
2023/09/05 10:46:10;;;;;;;2.63;2.42;;;;;;;26.17;46.57;95050.19;5015910;28;20265;-91
2023/09/05 10:48:45;;;;;;;2.20;2.00;;;;;;;26.28;46.54;95076.44;5002340;28;20206;-84
2023/09/05 10:51:13;;;;;;;2.80;2.50;;;;;;;26.24;45.51;95027.94;5015376;28;20249;-84
2023/09/05 10:53:41;;;;;;;3.55;2.60;;;;;;;26.27;45.77;95032.63;5013631;28;20226;-84
2023/09/05 10:56:39;;;;;;;2.97;2.38;;;;;;;26.34;45.47;95025.97;4999513;28;20210;-85
2023/09/05 10:59:07;;;;;;;2.28;2.08;;;;;;;26.14;46.22;95039.44;5000005;28;20206;-83
2023/09/05 11:01:56;;;;;;;2.65;2.30;;;;;;;26.28;45.32;94999.91;5000744;28;20243;-83
2023/09/05 11:04:28;;;;;;;3.20;2.40;;;;;;;26.36;46.36;95062.63;5009968;28;20226;-83
2023/09/05 11:06:55;;;;;;;3.75;2.30;;;;;;;26.42;45.64;95006.81;5015238;28;20252;-83
2023/09/05 11:09:23;;;;;;;2.20;2.00;;;;;;;26.26;44.13;94928.91;5015506;28;20229;-82
2023/09/05 11:11:50;;;;;;;2.50;2.30;;;;;;;26.16;44.63;94966.06;5014564;28;20252;-83
2023/09/05 11:14:16;;;;;;;2.40;2.20;;;;;;;25.98;45.01;94958.97;5015272;28;20219;-82
2023/09/05 11:16:46;;;;;;;1.92;1.83;;;;;;;26.00;45.20;94970.00;5015236;28;20203;-83
2023/09/05 11:19:13;;;;;;;2.70;2.50;;;;;;;26.07;45.07;94976.47;5009193;28;20779;-83
2023/09/05 11:21:41;;;;;;;2.10;2.00;;;;;;;26.14;45.38;94976.91;5014420;28;20763;-84
2023/09/05 11:24:09;;;;;;;2.70;2.42;;;;;;;26.22;45.49;94972.78;5013811;28;20758;-84
2023/09/05 11:26:36;;;;;;;2.60;2.40;;;;;;;26.13;44.34;94919.91;5014232;28;20199;-83
2023/09/05 11:29:02;;;;;;;2.38;2.17;;;;;;;26.13;44.99;94941.03;5015088;28;20210;-84
2023/09/05 11:31:30;;;;;;;4.25;2.65;;;;;;;26.21;45.12;94944.84;5016882;28;20199;-81
2023/09/05 11:33:59;;;;;;;4.03;2.47;;;;;;;26.17;44.84;94948.38;5015718;28;20229;-81
2023/09/05 11:36:26;;;;;;;2.65;2.25;;;;;;;26.06;43.56;94824.50;5012256;28;20213;-82
2023/09/05 11:38:53;;;;;;;2.55;2.35;;;;;;;26.17;42.42;94796.84;5016775;28;20205;-81
2023/09/05 11:41:22;;;;;;;2.10;1.90;;;;;;;26.17;41.82;94732.72;5017368;28;20258;-82
2023/09/05 11:43:50;;;;;;;2.50;2.30;;;;;;;26.33;42.10;94762.28;5016804;28;20219;-81